createdAt,value
2018-03-06T00:00:07.561Z,49.47
2018-03-06T00:02:36.858Z,44.40
2018-03-06T00:05:05.159Z,43.55
2018-03-06T00:07:33.413Z,48.85
2018-03-06T00:10:02.328Z,46.50
2018-03-06T00:12:30.739Z,50.22
2018-03-06T00:14:59.963Z,51.92
2018-03-06T00:17:28.253Z,48.28
2018-03-06T00:19:56.564Z,49.85
2018-03-06T00:22:25.735Z,45.17
2018-03-06T00:24:54.076Z,49.63
2018-03-06T00:27:22.367Z,47.92
2018-03-06T00:29:50.780Z,43.67
2018-03-06T00:32:19.050Z,51.40
2018-03-06T00:34:47.324Z,50.47
2018-03-06T00:37:15.597Z,48.40
2018-03-06T00:39:43.845Z,50.45
2018-03-06T00:42:12.141Z,50.65
2018-03-06T00:44:40.396Z,52.95
2018-03-06T00:47:09.538Z,48.67
2018-03-06T00:49:37.781Z,50.83
2018-03-06T00:52:06.051Z,47.15
2018-03-06T00:54:34.319Z,51.95
2018-03-06T00:57:02.601Z,51.37
2018-03-06T00:59:30.901Z,64.00
2018-03-06T01:02:00.061Z,53.10
2018-03-06T01:04:28.920Z,52.40
2018-03-06T01:06:57.969Z,46.60
2018-03-06T01:09:26.374Z,49.67
2018-03-06T01:11:54.625Z,49.85
2018-03-06T01:14:22.932Z,61.35
2018-03-06T01:16:51.169Z,55.47
2018-03-06T01:19:19.473Z,50.35
2018-03-06T01:21:47.919Z,50.40
2018-03-06T01:24:16.263Z,56.08
2018-03-06T01:26:44.552Z,58.58
2018-03-06T01:29:12.814Z,55.78
2018-03-06T01:31:40.381Z,54.70
2018-03-06T01:34:08.663Z,60.47
2018-03-06T01:36:36.952Z,63.30
2018-03-06T01:39:05.349Z,61.50
2018-03-06T01:41:33.657Z,56.25
2018-03-06T01:44:02.836Z,60.78
2018-03-06T01:46:31.896Z,61.67
2018-03-06T01:49:00.182Z,60.50
2018-03-06T01:54:36.804Z,60.15
2018-03-06T01:57:05.946Z,57.65
2018-03-06T01:59:34.204Z,58.92
2018-03-06T02:02:02.474Z,64.45
2018-03-06T02:04:30.877Z,64.47
2018-03-06T02:07:00.239Z,68.45
2018-03-06T02:09:28.509Z,64.45
2018-03-06T02:11:59.133Z,67.97
2018-03-06T02:14:29.163Z,65.05
2018-03-06T02:16:58.286Z,65.57
2018-03-06T02:19:26.617Z,58.67
2018-03-06T02:21:55.702Z,67.43
2018-03-06T02:24:23.982Z,70.65
2018-03-06T02:26:54.231Z,72.37
2018-03-06T02:31:57.901Z,79.18
2018-03-06T02:34:26.172Z,67.53
2018-03-06T02:36:54.419Z,66.00
2018-03-06T02:39:23.596Z,73.03
2018-03-06T02:41:51.870Z,69.03
2018-03-06T02:44:20.808Z,73.12
2018-03-06T02:46:49.155Z,63.72
2018-03-06T02:49:18.347Z,62.03
2018-03-06T02:51:46.622Z,60.05
2018-03-06T02:54:14.947Z,65.00
2018-03-06T02:56:44.719Z,64.05
2018-03-06T02:59:12.980Z,59.65
2018-03-06T03:01:41.954Z,70.45
2018-03-06T03:04:10.210Z,68.40
2018-03-06T03:06:38.506Z,72.87
2018-03-06T03:09:06.754Z,72.40
2018-03-06T03:11:35.832Z,83.50
2018-03-06T03:14:04.135Z,74.05
2018-03-06T03:16:33.174Z,72.55
2018-03-06T03:19:01.449Z,81.30
2018-03-06T03:21:29.708Z,79.20
2018-03-06T03:23:57.977Z,79.45
2018-03-06T03:26:26.230Z,71.22
2018-03-06T03:28:55.280Z,79.65
2018-03-06T03:31:23.529Z,83.45
2018-03-06T03:33:51.784Z,78.95
2018-03-06T03:36:20.058Z,80.07
2018-03-06T03:38:49.806Z,78.68
2018-03-06T03:41:18.090Z,82.28
2018-03-06T03:43:46.458Z,75.37
2018-03-06T03:46:14.751Z,72.95
2018-03-06T03:48:43.023Z,74.20
2018-03-06T03:51:11.347Z,71.07
2018-03-06T03:53:40.570Z,62.47
2018-03-06T03:56:08.836Z,69.03
2018-03-06T03:58:37.123Z,74.22
2018-03-06T04:01:05.374Z,72.47
2018-03-06T04:03:33.664Z,67.78
2018-03-06T04:06:03.219Z,73.55
2018-03-06T04:08:31.595Z,63.97
2018-03-06T04:11:00.005Z,73.22
2018-03-06T04:13:28.305Z,68.97
2018-03-06T04:15:56.572Z,78.70
2018-03-06T04:18:24.959Z,77.43
2018-03-06T04:20:53.237Z,70.93
2018-03-06T04:23:21.532Z,82.35
2018-03-06T04:25:49.815Z,81.43
2018-03-06T04:28:20.160Z,76.70
2018-03-06T04:30:49.206Z,70.32
2018-03-06T04:33:17.473Z,76.90
2018-03-06T04:35:45.996Z,72.80
2018-03-06T04:38:14.256Z,74.80
2018-03-06T04:40:42.528Z,74.97
2018-03-06T04:43:10.780Z,82.05
2018-03-06T04:45:39.035Z,69.47
2018-03-06T04:48:08.013Z,81.07
2018-03-06T04:50:37.063Z,75.62
2018-03-06T04:53:05.370Z,76.20
2018-03-06T04:55:34.517Z,67.82
2018-03-06T04:58:02.796Z,74.80
2018-03-06T05:00:31.231Z,69.37
2018-03-06T05:03:00.330Z,72.43
2018-03-06T05:05:28.619Z,67.22
2018-03-06T05:07:56.939Z,81.15
2018-03-06T05:10:26.183Z,73.20
2018-03-06T05:12:54.545Z,77.50
2018-03-06T05:15:23.639Z,76.20
2018-03-06T05:17:52.737Z,67.75
2018-03-06T05:20:21.132Z,67.25
2018-03-06T05:22:49.880Z,74.35
2018-03-06T05:25:18.498Z,76.28
2018-03-06T05:27:46.755Z,66.62
2018-03-06T05:30:15.889Z,73.37
2018-03-06T05:32:44.479Z,70.32
2018-03-06T05:35:12.758Z,65.53
2018-03-06T05:37:41.024Z,75.35
2018-03-06T05:40:09.437Z,67.60
2018-03-06T05:42:37.742Z,70.00
2018-03-06T05:45:07.070Z,70.70
2018-03-06T05:47:35.351Z,70.68
2018-03-06T05:50:03.799Z,70.15
2018-03-06T05:52:32.834Z,71.43
2018-03-06T05:55:01.106Z,70.10
2018-03-06T05:57:29.364Z,70.90
2018-03-06T05:59:57.870Z,76.25
2018-03-06T06:02:26.151Z,68.80
2018-03-06T06:04:55.931Z,76.85
2018-03-06T06:07:24.224Z,65.68
2018-03-06T06:09:53.447Z,75.72
2018-03-06T06:12:21.923Z,66.03
2018-03-06T06:14:50.999Z,67.25
2018-03-06T06:17:19.234Z,71.80
2018-03-06T06:19:48.407Z,86.07
2018-03-06T06:22:18.255Z,77.87
2018-03-06T06:24:48.066Z,81.25
2018-03-06T06:27:16.349Z,76.62
2018-03-06T06:29:44.602Z,80.10
2018-03-06T06:32:14.633Z,76.80
2018-03-06T06:34:42.913Z,84.43
2018-03-06T06:37:11.239Z,76.87
2018-03-06T06:39:41.142Z,77.32
2018-03-06T06:42:09.428Z,68.80
2018-03-06T06:44:38.490Z,71.55
2018-03-06T06:47:06.760Z,81.20
2018-03-06T06:49:35.033Z,77.50
2018-03-06T06:52:04.188Z,60.05
2018-03-06T06:54:32.519Z,67.18
2018-03-06T06:57:00.924Z,78.43
2018-03-06T06:59:30.060Z,64.00
2018-03-06T07:01:58.385Z,70.82
2018-03-06T07:04:26.770Z,66.93
2018-03-06T07:06:55.067Z,63.47
2018-03-06T07:09:24.219Z,66.57
2018-03-06T07:11:52.510Z,61.17
2018-03-06T07:14:21.669Z,70.32
2018-03-06T07:16:50.553Z,80.07
2018-03-06T07:19:18.834Z,75.47
2018-03-06T07:21:50.931Z,83.55
2018-03-06T07:24:19.273Z,59.47
2018-03-06T07:26:48.193Z,68.87
2018-03-06T07:29:16.466Z,81.37
2018-03-06T07:31:46.304Z,65.10
2018-03-06T07:34:15.598Z,69.62
2018-03-06T07:36:47.631Z,73.55
2018-03-06T07:39:15.991Z,74.25
2018-03-06T07:41:46.915Z,80.97
2018-03-06T07:44:15.141Z,69.90
2018-03-06T07:46:43.390Z,67.72
2018-03-06T07:49:11.911Z,58.22
2018-03-06T07:51:40.939Z,65.12
2018-03-06T07:54:09.215Z,61.30
2018-03-06T07:56:38.831Z,53.58
2018-03-06T07:59:07.370Z,62.08
2018-03-06T08:01:35.774Z,67.57
2018-03-06T08:04:04.251Z,70.12
2018-03-06T08:06:33.766Z,62.72
2018-03-06T08:09:02.156Z,65.50
2018-03-06T08:11:31.358Z,59.85
2018-03-06T08:13:59.980Z,62.25
2018-03-06T08:16:28.372Z,65.78
2018-03-06T08:18:58.578Z,67.37
2018-03-06T08:21:28.954Z,62.83
2018-03-06T08:23:57.244Z,67.82
2018-03-06T08:26:27.106Z,60.08
2018-03-06T08:28:55.604Z,64.15
2018-03-06T08:31:24.663Z,62.90
2018-03-06T08:33:54.023Z,58.85
2018-03-06T08:36:22.486Z,64.72
2018-03-06T08:38:50.979Z,69.05
2018-03-06T08:41:20.759Z,60.35
2018-03-06T08:43:50.400Z,69.53
2018-03-06T08:46:18.675Z,65.43
2018-03-06T08:48:46.936Z,61.15
2018-03-06T08:51:15.403Z,63.35
2018-03-06T08:53:43.666Z,61.85
2018-03-06T08:56:11.974Z,60.28
2018-03-06T08:58:40.940Z,66.82
2018-03-06T09:01:09.255Z,64.62
2018-03-06T09:03:38.426Z,64.40
2018-03-06T09:06:06.713Z,69.25
2018-03-06T09:08:35.814Z,67.53
2018-03-06T09:11:04.112Z,68.47
2018-03-06T09:13:32.419Z,68.03
2018-03-06T09:16:01.449Z,64.25
2018-03-06T09:18:29.751Z,64.75
2018-03-06T09:20:58.011Z,77.18
2018-03-06T09:23:26.337Z,75.12
2018-03-06T09:25:54.840Z,66.80
2018-03-06T09:28:23.100Z,69.32
2018-03-06T09:30:52.462Z,69.70
2018-03-06T09:33:20.724Z,74.22
2018-03-06T09:35:49.001Z,68.97
2018-03-06T09:38:17.308Z,67.05
2018-03-06T09:40:46.353Z,71.75
2018-03-06T09:43:14.616Z,69.43
2018-03-06T09:45:42.973Z,70.82
2018-03-06T09:48:12.076Z,67.65
2018-03-06T09:50:40.334Z,74.68
2018-03-06T09:53:08.654Z,73.15
2018-03-06T09:55:37.053Z,62.47
2018-03-06T09:58:05.518Z,61.95
2018-03-06T10:00:33.879Z,69.15
2018-03-06T10:03:02.588Z,68.60
2018-03-06T10:05:30.718Z,69.03
2018-03-06T10:07:58.998Z,66.60
2018-03-06T10:10:27.286Z,70.07
2018-03-06T10:12:55.733Z,69.05
2018-03-06T10:15:24.014Z,74.53
2018-03-06T10:17:52.405Z,70.22
2018-03-06T10:20:20.700Z,69.85
2018-03-06T10:22:49.239Z,74.87
2018-03-06T10:25:17.627Z,68.57
2018-03-06T10:27:45.962Z,71.07
2018-03-06T10:30:14.249Z,71.87
2018-03-06T10:32:42.765Z,77.78
2018-03-06T10:35:11.090Z,77.80
2018-03-06T10:37:39.358Z,74.70
2018-03-06T10:40:07.803Z,80.62
2018-03-06T10:42:36.191Z,73.60
2018-03-06T10:45:04.734Z,75.53
2018-03-06T10:47:34.773Z,72.20
2018-03-06T10:50:03.073Z,70.12
2018-03-06T10:52:31.363Z,76.03
2018-03-06T10:54:59.712Z,80.70
2018-03-06T10:57:28.013Z,78.87
2018-03-06T10:59:56.275Z,74.05
2018-03-06T11:02:32.153Z,76.53
2018-03-06T11:05:01.802Z,82.68
2018-03-06T11:07:31.912Z,74.40
2018-03-06T11:10:00.414Z,72.45
2018-03-06T11:12:28.964Z,83.28
2018-03-06T11:14:58.030Z,81.85
2018-03-06T11:17:26.569Z,78.25
2018-03-06T11:19:54.850Z,78.97
2018-03-06T11:22:23.106Z,69.47
2018-03-06T11:24:51.449Z,73.03
2018-03-06T11:27:20.772Z,69.78
2018-03-06T11:29:49.311Z,70.90
2018-03-06T11:32:18.377Z,79.45
2018-03-06T11:34:46.644Z,73.20
2018-03-06T11:37:15.070Z,75.85
2018-03-06T11:39:43.552Z,77.30
2018-03-06T11:42:11.904Z,69.05
2018-03-06T11:44:42.122Z,72.72
2018-03-06T11:47:10.527Z,76.80
2018-03-06T11:49:38.827Z,77.15
2018-03-06T11:52:07.136Z,72.90
2018-03-06T11:54:35.619Z,71.75
2018-03-06T11:57:05.415Z,73.28
2018-03-06T11:59:33.699Z,72.78
2018-03-06T12:02:02.096Z,84.22
2018-03-06T12:04:30.359Z,84.75
2018-03-06T12:06:58.794Z,83.18
2018-03-06T12:09:27.209Z,78.65
2018-03-06T12:11:55.524Z,79.37
2018-03-06T12:14:24.543Z,80.97
2018-03-06T12:16:53.584Z,83.70
2018-03-06T12:19:22.568Z,75.87
2018-03-06T12:21:50.860Z,73.57
2018-03-06T12:24:19.241Z,79.47
2018-03-06T12:26:48.620Z,80.90
2018-03-06T12:29:16.968Z,78.25
2018-03-06T12:31:45.401Z,82.90
2018-03-06T12:34:13.709Z,84.97
2018-03-06T12:36:42.834Z,81.50
2018-03-06T12:39:13.276Z,74.70
2018-03-06T12:41:41.642Z,78.32
2018-03-06T12:44:09.907Z,83.22
2018-03-06T12:46:40.449Z,84.97
2018-03-06T12:49:08.765Z,84.07
2018-03-06T12:51:37.021Z,78.43
2018-03-06T12:54:05.337Z,82.03
2018-03-06T12:56:34.618Z,75.28
2018-03-06T12:59:02.944Z,86.50
2018-03-06T13:01:31.220Z,83.37
2018-03-06T13:03:59.570Z,78.75
2018-03-06T13:06:27.946Z,81.40
2018-03-06T13:08:57.007Z,77.28
2018-03-06T13:11:25.651Z,80.22
2018-03-06T13:13:55.751Z,83.37
2018-03-06T13:16:24.078Z,93.70
2018-03-06T13:18:52.376Z,81.00
2018-03-06T13:21:21.435Z,76.50
2018-03-06T13:23:49.786Z,72.47
2018-03-06T13:26:20.915Z,70.93
2018-03-06T13:28:49.363Z,77.93
2018-03-06T13:31:17.683Z,83.68
2018-03-06T13:33:47.370Z,73.97
2018-03-06T13:36:17.586Z,71.03
2018-03-06T13:38:46.241Z,75.03
2018-03-06T13:41:17.093Z,77.97
2018-03-06T13:43:46.255Z,71.10
2018-03-06T13:46:20.168Z,65.18
2018-03-06T13:48:50.711Z,77.93
2018-03-06T13:51:19.147Z,79.35
2018-03-06T13:53:47.484Z,72.22
2018-03-06T13:56:15.806Z,75.70
2018-03-06T13:58:45.049Z,66.95
2018-03-06T14:01:13.610Z,74.03
2018-03-06T14:03:41.876Z,67.53
2018-03-06T14:06:10.195Z,63.78
2018-03-06T14:08:40.071Z,69.82
2018-03-06T14:11:08.343Z,77.55
2018-03-06T14:13:36.653Z,69.03
2018-03-06T14:16:06.096Z,67.45
2018-03-06T14:18:35.213Z,60.63
2018-03-06T14:21:03.672Z,59.20
2018-03-06T14:23:31.980Z,62.47
2018-03-06T14:26:00.319Z,62.40
2018-03-06T14:28:29.241Z,60.15
2018-03-06T14:30:57.523Z,62.03
2018-03-06T14:33:26.796Z,65.25
2018-03-06T14:35:56.212Z,61.30
2018-03-06T14:38:24.554Z,57.50
2018-03-06T14:40:53.077Z,59.15
2018-03-06T14:43:21.519Z,62.92
2018-03-06T14:45:50.963Z,61.20
2018-03-06T14:48:19.510Z,67.62
2018-03-06T14:50:47.878Z,65.12
2018-03-06T14:53:16.276Z,51.15
2018-03-06T14:55:44.606Z,59.45
2018-03-06T14:58:13.406Z,63.65
2018-03-06T15:00:41.753Z,67.60
2018-03-06T15:03:10.897Z,58.70
2018-03-06T15:05:39.193Z,61.28
2018-03-06T15:08:07.624Z,58.58
2018-03-06T15:10:36.622Z,64.15
2018-03-06T15:13:05.021Z,56.47
2018-03-06T15:15:33.679Z,56.42
2018-03-06T15:18:02.318Z,59.10
2018-03-06T15:20:30.687Z,63.85
2018-03-06T15:22:59.094Z,64.65
2018-03-06T15:25:27.700Z,68.18
2018-03-06T15:27:57.769Z,69.28
2018-03-06T15:30:26.053Z,71.47
2018-03-06T15:32:54.904Z,69.55
2018-03-06T15:35:23.315Z,73.13
2018-03-06T15:37:52.061Z,62.28
2018-03-06T15:40:20.792Z,61.78
2018-03-06T15:42:49.217Z,61.30
2018-03-06T15:45:18.047Z,57.62
2018-03-06T15:47:46.436Z,63.40
2018-03-06T15:50:14.972Z,66.10
2018-03-06T15:52:43.265Z,65.35
2018-03-06T15:55:12.169Z,71.78
2018-03-06T15:57:40.428Z,65.47
2018-03-06T16:00:09.136Z,62.88
2018-03-06T16:02:37.439Z,61.25
2018-03-06T16:05:06.508Z,61.10
2018-03-06T16:07:34.805Z,56.55
2018-03-06T16:10:04.874Z,63.85
2018-03-06T16:12:33.157Z,64.32
2018-03-06T16:15:02.272Z,63.70
2018-03-06T16:17:30.624Z,69.97
2018-03-06T16:19:58.901Z,64.62
2018-03-06T16:22:27.195Z,67.97
2018-03-06T16:24:55.750Z,65.28
2018-03-06T16:27:24.794Z,54.88
2018-03-06T16:29:54.143Z,64.78
2018-03-06T16:32:22.435Z,61.65
2018-03-06T16:34:51.427Z,63.90
2018-03-06T16:37:19.717Z,63.05
2018-03-06T16:39:50.216Z,71.45
2018-03-06T16:42:18.504Z,72.37
2018-03-06T16:44:46.923Z,74.07
2018-03-06T16:47:16.248Z,68.15
2018-03-06T16:49:44.510Z,60.60
2018-03-06T16:52:14.296Z,71.78
2018-03-06T16:54:42.581Z,64.65
2018-03-06T16:57:11.809Z,72.32
2018-03-06T16:59:40.116Z,73.25
2018-03-06T17:02:08.412Z,66.90
2018-03-06T17:04:36.712Z,70.62
2018-03-06T17:07:06.576Z,59.60
2018-03-06T17:09:34.864Z,63.22
2018-03-06T17:12:03.132Z,62.78
2018-03-06T17:14:31.452Z,59.95
2018-03-06T17:17:05.812Z,62.13
2018-03-06T17:19:34.084Z,61.03
2018-03-06T17:22:02.336Z,59.22
2018-03-06T17:24:30.621Z,60.40
2018-03-06T17:26:58.894Z,63.92
2018-03-06T17:29:28.084Z,68.40
2018-03-06T17:31:56.352Z,61.63
2018-03-06T17:34:24.752Z,59.47
2018-03-06T17:36:53.089Z,70.32
2018-03-06T17:39:24.870Z,67.78
2018-03-06T17:41:53.376Z,64.75
2018-03-06T17:44:21.715Z,68.55
2018-03-06T17:46:50.034Z,70.10
2018-03-06T17:49:18.367Z,66.95
2018-03-06T17:51:46.864Z,68.95
2018-03-06T17:54:15.130Z,57.80
2018-03-06T17:56:43.739Z,69.10
2018-03-06T17:59:12.008Z,63.15
2018-03-06T18:01:40.444Z,64.15
2018-03-06T18:04:09.611Z,60.28
2018-03-06T18:06:37.953Z,68.93
2018-03-06T18:09:06.429Z,65.47
2018-03-06T18:11:34.827Z,61.85
2018-03-06T18:14:03.104Z,63.67
2018-03-06T18:16:31.441Z,71.20
2018-03-06T18:18:59.798Z,66.12
2018-03-06T18:21:29.598Z,66.10
2018-03-06T18:23:58.712Z,73.62
2018-03-06T18:26:27.781Z,71.45
2018-03-06T18:28:57.474Z,72.30
2018-03-06T18:31:26.045Z,62.78
2018-03-06T18:33:54.719Z,64.78
2018-03-06T18:36:23.918Z,62.25
2018-03-06T18:38:52.197Z,71.45
2018-03-06T18:41:20.871Z,69.15
2018-03-06T18:43:49.377Z,64.40
2018-03-06T18:46:17.636Z,74.22
2018-03-06T18:48:46.525Z,67.82
2018-03-06T18:51:14.900Z,61.22
2018-03-06T18:53:44.147Z,60.67
2018-03-06T18:56:13.823Z,59.75
2018-03-06T18:58:43.394Z,55.92
2018-03-06T19:04:58.351Z,52.58
2018-03-06T19:07:27.456Z,49.08
2018-03-06T19:09:56.804Z,53.00
2018-03-06T19:12:26.500Z,42.90
2018-03-06T19:14:56.395Z,41.13
2018-03-06T19:17:26.082Z,48.65
2018-03-06T19:19:55.036Z,41.70
2018-03-06T19:22:24.152Z,50.90
2018-03-06T19:24:53.413Z,40.85
2018-03-06T19:27:22.079Z,42.10
2018-03-06T19:29:51.140Z,43.20
2018-03-06T19:32:20.160Z,41.42
2018-03-06T19:34:48.731Z,35.50
2018-03-06T19:37:17.197Z,32.78
2018-03-06T19:39:46.914Z,30.95
2018-03-06T19:42:15.952Z,31.12
2018-03-06T19:44:44.726Z,31.40
2018-03-06T19:47:13.417Z,35.30
2018-03-06T19:49:41.916Z,34.00
2018-03-06T19:52:10.399Z,35.15
2018-03-06T19:54:39.147Z,30.60
2018-03-06T19:57:08.960Z,33.10
2018-03-06T19:59:37.890Z,29.70
2018-03-06T20:02:06.910Z,25.37
2018-03-06T20:04:36.168Z,26.15
2018-03-06T20:07:06.443Z,32.08
2018-03-06T20:09:34.894Z,31.62
2018-03-06T20:12:03.440Z,33.72
2018-03-06T20:14:37.410Z,29.48
2018-03-06T20:17:06.670Z,31.50
2018-03-06T20:19:41.420Z,31.60
2018-03-06T20:22:10.053Z,31.17
2018-03-06T20:24:44.079Z,31.08
2018-03-06T20:27:12.660Z,31.87
2018-03-06T20:29:42.706Z,34.03
2018-03-06T20:32:16.996Z,29.20
2018-03-06T20:34:46.984Z,30.92
2018-03-06T20:37:16.480Z,27.85
2018-03-06T20:39:50.650Z,31.90
2018-03-06T20:42:19.285Z,31.30
2018-03-06T20:44:48.021Z,29.27
2018-03-06T20:47:22.142Z,31.55
2018-03-06T20:49:50.871Z,32.38
2018-03-06T20:52:19.250Z,31.62
2018-03-06T20:54:53.227Z,29.73
2018-03-06T20:57:21.938Z,32.88
2018-03-06T20:59:50.507Z,33.22
2018-03-06T21:02:19.189Z,35.65
2018-03-06T21:04:47.684Z,33.45
2018-03-06T21:07:16.388Z,32.67
2018-03-06T21:09:45.747Z,33.67
2018-03-06T21:12:14.292Z,35.08
2018-03-06T21:14:44.182Z,36.85
2018-03-06T21:17:13.108Z,32.30
2018-03-06T21:19:42.275Z,39.67
2018-03-06T21:22:14.292Z,34.28
2018-03-06T21:24:42.592Z,33.55
2018-03-06T21:27:10.891Z,37.80
2018-03-06T21:29:41.048Z,38.63
2018-03-06T21:32:10.205Z,30.15
2018-03-06T21:34:38.639Z,33.20
2018-03-06T21:37:07.216Z,30.58
2018-03-06T21:39:36.463Z,31.33
2018-03-06T21:42:05.026Z,33.83
2018-03-06T21:44:33.700Z,34.47
2018-03-06T21:47:02.159Z,32.10
2018-03-06T21:49:30.462Z,32.47
2018-03-06T21:51:59.190Z,37.25
2018-03-06T21:54:27.827Z,31.60
2018-03-06T21:56:56.747Z,32.42
2018-03-06T21:59:25.573Z,33.88
2018-03-06T22:01:54.841Z,39.55
2018-03-06T22:04:23.896Z,40.25
2018-03-06T22:06:53.666Z,35.50
2018-03-06T22:09:22.402Z,35.70
2018-03-06T22:11:51.960Z,41.22
2018-03-06T22:14:21.927Z,36.67
2018-03-06T22:16:51.069Z,34.20
2018-03-06T22:19:19.934Z,40.45
2018-03-06T22:21:48.347Z,37.88
2018-03-06T22:24:16.855Z,32.97
2018-03-06T22:26:45.300Z,34.03
2018-03-06T22:29:13.714Z,39.45
2018-03-06T22:31:42.164Z,35.42
2018-03-06T22:34:10.486Z,35.28
2018-03-06T22:36:38.984Z,35.28
2018-03-06T22:39:07.329Z,35.13
2018-03-06T22:41:35.809Z,34.92
2018-03-06T22:44:04.089Z,36.03
2018-03-06T22:46:33.302Z,41.90
2018-03-06T22:49:01.631Z,37.53
2018-03-06T22:51:29.931Z,34.55
2018-03-06T22:53:58.218Z,34.20
2018-03-06T22:56:26.769Z,36.10
2018-03-06T22:58:55.841Z,33.38
2018-03-06T23:01:25.232Z,32.75
2018-03-06T23:03:55.312Z,34.97
2018-03-06T23:06:25.933Z,36.17
2018-03-06T23:08:54.400Z,36.58
2018-03-06T23:11:23.651Z,41.95
2018-03-06T23:13:52.808Z,38.47
2018-03-06T23:16:21.869Z,37.78
2018-03-06T23:18:50.202Z,32.55
2018-03-06T23:21:18.622Z,37.45
2018-03-06T23:23:47.055Z,35.80
2018-03-06T23:26:15.408Z,34.95
2018-03-06T23:28:44.612Z,38.85
2018-03-06T23:31:13.541Z,42.13
2018-03-06T23:33:44.490Z,39.63
2018-03-06T23:36:12.828Z,39.65
2018-03-06T23:38:41.097Z,34.17
2018-03-06T23:41:11.962Z,34.28
2018-03-06T23:43:41.156Z,35.42
2018-03-06T23:46:10.142Z,34.40
2018-03-06T23:48:38.656Z,42.45
2018-03-06T23:51:07.888Z,37.08
2018-03-06T23:53:36.175Z,38.35
2018-03-06T23:56:05.047Z,39.35
2018-03-06T23:58:33.558Z,39.38
